Pagina principale
METAR-TAF:

METAR-TAF

Aeroporti :

Aeroporto di Berlino-Tegel

Berlino, Germania

latitudine: 52-34N, longitudine: 013-19E, altezza: 37 m

Osservazione

Il bollettino è stato emesso 5 minuti fa, alle 22:50 UTC
Vento 1 kt da direzioni variabili
Temperature 16°C
Umidità 82%
Pressione 1019 hPa
Visibilità 10 km o più
nessuna nube inferiore a 1500 m e nessun cumulonembo

METAR: EDDT 152250Z VRB01KT CAVOK 16/13 Q1019

Ora: 00:55 (22:55 UTC)

Previsione

Il bollettino è stato emesso 5 ore e 55 minuti fa, alle 17:00 UTC
Previsione valida dal 15 alle 18 UTC al 16 alle 18 UTC
Vento 8 kt da ovest/nord-ovest
Visibilità 10 km o più
nessuna nube inferiore a 1500 m e nessun cumulonembo
Evoluzione graduale
dal 15 alle 18 UTC al 15 alle 20 UTC
Vento 3 kt da direzioni variabili
Evoluzione graduale
dal 16 alle 07 UTC al 16 alle 09 UTC
Vento 7 kt da sud/sud-est

TAF: EDDT 151700Z 1518/1618 30008KT CAVOK BECMG 1518/1520 VRB03KT BECMG 1607/1609 16007KT

Osservazioni e previsioni meteorologiche di più di 4000 aeroporti (messaggi METAR e TAF).

Le stazioni disponibili sono rappresentate dai dischi gialli e rossi sulla carta.

Puntare il mouse per vedere il nome della stazione.

Clicca sopra per visualizzare le osservazioni e previsioni meteorologiche.

Per cambiare la mappa : fare clic sui pulsanti verdi con una croce nera per ingrandire, il pulsante verde con un trattino per diminuire, o sulla freccia verde per le mappe adiacenti.


METAR-TAF: